Latest Weather Observations for Pallamana

IDS60901

Issued at 8:51 am CDT Thursday 2 April 2015 (issued every 10 minutes, with the page automatically refreshed every 10 minutes)

About weather observations | Map of Adelaide area stations | Latest observations for Adelaide area | Other Formats
Station Details ID: 024584 Name: PALLAMANA AERODROME Lat: -35.06 Lon: 139.23 Height: 45.0 m
Data from the previous 72 hours. | See also: Recent months at Pallamana
Date/Time
CDT
Tmp

°C
App
Tmp
°C
Dew
Point
°C
Rel
Hum
%
Delta-T

°C
Wind Press
QNH
hPa
Press
MSL
hPa
Rain
since
9 am
mm
Dir
 
Spd
km/h
Gust
km/h
Spd
kts
Gust
kts
02/08:30am 11.9 9.4 6.6 70 2.5 SSE 9 15 5 8 1025.7 1025.7 0.2
02/08:00am 11.1 7.7 5.7 69 2.5 S 13 17 7 9 1025.1 1025.1 0.2
02/07:30am 10.7 6.9 5.7 71 2.3 S 15 19 8 10 1024.8 1024.8 0.0
02/07:00am 11.1 6.9 5.9 70 2.4 S 17 22 9 12 1024.2 1024.2 0.0
02/06:30am 11.4 7.3 6.3 71 2.4 S 17 22 9 12 1023.8 1023.8 0.0
02/06:00am 12.0 7.5 7.0 71 2.4 SSE 20 30 11 16 1023.5 1023.5 0.0
02/05:30am 12.7 7.6 7.8 72 2.4 SSE 24 32 13 17 1022.9 1022.9 0.0
02/05:00am 12.9 9.6 8.2 73 2.3 S 15 20 8 11 1022.3 1022.2 0.0
02/04:30am 13.0 9.1 8.8 75 2.1 S 19 24 10 13 1022.0 1021.9 0.0
02/04:00am 14.0 10.2 9.9 76 2.1 S 20 28 11 15 1021.8 1021.7 0.0
02/03:30am 14.3 10.8 10.3 77 2.1 S 19 24 10 13 1021.8 1021.7 0.0
02/03:00am 14.0 10.6 11.2 83 1.5 S 20 33 11 18 1021.7 1021.6 0.0
02/02:56am 13.8 9.7 11.3 85 1.3 S 24 33 13 18 1021.7 1021.6 0.0
02/02:30am 13.9 8.8 12.0 88 1.0 S 30 39 16 21 1021.7 1021.6 0.0
02/02:21am 14.6 10.7 12.0 84 1.4 S 24 39 13 21 1021.6 1021.5 0.0
02/02:00am 15.0 11.5 12.2 83 1.5 SSW 22 32 12 17 1021.5 1021.4 0.0
02/01:30am 14.9 11.8 12.3 84 1.4 SSW 20 26 11 14 1021.4 1021.3 0.0
02/01:00am 14.9 12.6 13.1 89 1.0 S 17 24 9 13 1021.4 1021.3 0.0
02/12:30am 15.2 12.0 13.2 88 1.1 SSW 22 35 12 19 1021.2 1021.1 0.0
02/12:03am 15.5 11.8 13.9 90 0.9 SSW 26 35 14 19 1021.0 1020.9 0.0
02/12:00am 15.5 11.8 13.9 90 0.9 SSW 26 35 14 19 1020.9 1020.8 0.0
 
Date/Time
CDT
Tmp

°C
App
Tmp
°C
Dew
Point
°C
Rel
Hum
%
Delta-T

°C
Wind Press
QNH
hPa
Press
MSL
hPa
Rain
since
9 am
mm
Dir
 
Spd
km/h
Gust
km/h
Spd
kts
Gust
kts
01/11:55pm 15.5 11.8 13.9 90 0.9 SSW 26 33 14 18 1020.8 1020.7 0.0
01/11:38pm 15.7 12.6 14.5 93 0.7 S 24 33 13 18 1021.0 1020.9 0.0
01/11:33pm 15.7 12.6 14.5 93 0.7 SSW 24 37 13 20 1020.9 1020.8 0.0
01/11:30pm 15.7 12.2 14.5 93 0.7 SSW 26 37 14 20 1020.9 1020.8 0.0
01/11:00pm 16.0 13.1 15.0 94 0.6 S 24 33 13 18 1020.6 1020.5 0.0
01/10:30pm 16.5 12.9 15.3 93 0.7 SSW 28 39 15 21 1020.1 1020.0 0.0
01/10:20pm 16.8 12.5 15.4 91 0.8 SSW 32 43 17 23 1019.9 1019.8 0.0
01/10:17pm 16.8 12.9 15.4 91 0.8 SSW 30 43 16 23 1019.8 1019.7 0.0
01/10:00pm 17.3 13.1 15.8 91 0.9 SSW 32 46 17 25 1019.5 1019.4 0.0
01/09:56pm 17.8 14.1 15.9 89 1.1 SW 30 46 16 25 1019.2 1019.1 0.0
01/09:55pm 18.0 14.7 16.1 89 1.1 SW 28 46 15 25 1019.2 1019.1 0.0
01/09:35pm 18.2 15.7 16.2 88 1.2 SSW 24 30 13 16 1018.9 1018.8 0.0
01/09:30pm 18.2 16.1 16.2 88 1.2 SSW 22 30 12 16 1018.9 1018.8 0.0
01/09:00pm 18.4 16.7 16.2 87 1.3 SSW 20 28 11 15 1018.4 1018.3 0.0
01/08:53pm 18.3 16.6 16.3 88 1.2 SSW 20 28 11 15 1018.2 1018.1 0.0
01/08:30pm 18.3 17.3 16.5 89 1.1 SSW 17 24 9 13 1017.8 1017.7 0.0
01/08:20pm 18.4 16.5 16.6 89 1.1 SSW 22 32 12 17 1017.6 1017.5 0.0
01/08:00pm 19.2 18.0 16.2 83 1.8 SW 17 24 9 13 1017.1 1017.0 0.0
01/07:30pm 19.8 17.8 15.6 77 2.5 SW 20 26 11 14 1016.5 1016.4 0.0
01/07:00pm 20.8 17.2 15.2 70 3.3 SW 28 35 15 19 1016.2 1016.1 0.0
01/06:30pm 22.9 18.0 13.6 55 5.4 WSW 32 43 17 23 1015.7 1015.6 0.0
01/06:00pm 23.9 20.1 13.6 52 6.0 W 26 39 14 21 1015.3 1015.2 0.0
01/05:30pm 25.8 21.3 11.3 40 8.2 WSW 26 37 14 20 1014.5 1014.4 0.0
01/05:00pm 27.3 20.8 10.4 34 9.5 WSW 35 44 19 24 1014.0 1013.9 0.0
01/04:30pm 28.6 23.8 8.8 29 10.9 WNW 24 35 13 19 1013.5 1013.4 0.0
01/04:00pm 28.6 23.3 8.6 28 11.0 WNW 26 35 14 19 1013.2 1013.1 0.0
01/03:30pm 28.8 23.2 7.2 25 11.6 WNW 26 37 14 20 1013.2 1013.1 0.0
01/03:09pm 29.2 22.5 3.5 19 13.0 WNW 28 46 15 25 1013.1 1013.0 0.0
01/03:00pm 29.3 22.6 3.7 19 13.0 WNW 28 41 15 22 1013.2 1013.1 0.0
01/02:30pm 29.4 21.8 0.4 15 13.9 WNW 30 44 16 24 1013.5 1013.4 0.0
01/02:00pm 30.0 21.6 -0.7 13 14.5 NW 33 52 18 28 1013.7 1013.6 0.0
01/01:44pm 30.4 21.8 -0.1 14 14.6 NW 35 54 19 29 1013.9 1013.8 0.0
01/01:30pm 30.8 22.8 0.1 14 14.8 NW 32 50 17 27 1014.0 1013.9 0.0
01/01:01pm 31.3 23.9 -0.4 13 15.2 NNW 28 52 15 28 1014.2 1014.1 0.0
01/01:00pm 31.6 24.4 0.4 13 15.2 NNW 28 37 15 20 1014.2 1014.1 0.0
01/12:38pm 30.8 22.5 0.0 14 14.8 NNW 33 52 18 28 1014.6 1014.5 0.0
01/12:30pm 30.7 21.6 -0.7 13 14.9 NNW 37 46 20 25 1014.7 1014.6 0.0
01/12:00pm 30.8 21.0 -0.4 13 14.9 N 41 52 22 28 1014.7 1014.6 0.0
01/11:30am 30.6 22.3 -0.5 13 14.8 N 33 48 18 26 1015.0 1014.9 0.0
01/11:25am 30.5 22.3 -1.2 13 14.9 N 32 48 17 26 1015.2 1015.1 0.0
01/11:00am 28.3 22.2 0.7 16 13.2 N 22 26 12 14 1015.6 1015.5 0.0
01/10:30am 25.2 20.2 1.6 21 11.2 NNE 17 22 9 12 1016.0 1015.9 0.0
01/10:00am 22.4 18.0 2.9 27 9.3 NNE 15 19 8 10 1016.1 1015.9 0.0
01/09:30am 21.5 17.2 3.3 30 8.7 N 15 19 8 10 1016.4 1016.2 0.0
01/09:00am 20.2 15.6 3.6 33 7.9 NNE 17 20 9 11 1016.2 1016.0 0.0
01/08:30am 20.1 17.2 4.9 37 7.4 N 9 13 5 7 1016.4 1016.2 0.0
01/08:00am 15.5 12.9 5.9 52 4.6 NNW 9 11 5 6 1016.4 1016.2 0.0
01/07:30am 14.8 12.1 5.8 55 4.3 NNW 9 11 5 6 1016.7 1016.5 0.0
01/07:00am 14.9 12.3 5.9 55 4.3 NNW 9 9 5 5 1016.5 1016.3 0.0
01/06:30am 14.4 12.2 6.0 57 4.0 NNW 7 9 4 5 1016.3 1016.1 0.0
01/06:00am 14.7 12.4 5.7 55 4.3 NNW 7 9 4 5 1016.3 1016.1 0.0
01/05:30am 14.8 12.2 6.1 56 4.2 NNW 9 9 5 5 1016.3 1016.1 0.0
01/05:00am 15.4 12.8 6.1 54 4.5 NNW 9 11 5 6 1016.5 1016.3 0.0
01/04:30am 15.2 12.6 6.1 54 4.4 N 9 11 5 6 1016.8 1016.6 0.0
01/04:00am 16.2 13.4 5.3 48 5.2 NW 9 11 5 6 1017.1 1016.9 0.0
01/03:30am 15.4 12.7 5.5 51 4.7 N 9 11 5 6 1017.3 1017.2 0.0
01/03:00am 13.5 11.2 5.6 59 3.7 N 7 9 4 5 1017.8 1017.7 0.0
01/02:30am 14.7 13.0 5.9 55 4.2 N 4 7 2 4 1018.2 1018.1 0.0
01/02:00am 14.1 12.0 5.9 57 3.9 NNW 6 9 3 5 1018.7 1018.6 0.0
01/01:30am 14.3 11.5 5.1 54 4.3 NNW 9 11 5 6 1019.0 1018.9 0.0
01/01:00am 17.3 13.4 3.5 39 6.4 NW 13 15 7 8 1019.1 1019.0 0.0
01/12:30am 14.8 12.5 5.0 52 4.6 NNW 6 7 3 4 1019.4 1019.3 0.0
01/12:00am 14.8 13.6 4.4 49 4.8 CALM 0 0 0 0 1019.5 1019.4 0.0
 
Date/Time
CDT
Tmp

°C
App
Tmp
°C
Dew
Point
°C
Rel
Hum
%
Delta-T

°C
Wind Press
QNH
hPa
Press
MSL
hPa
Rain
since
9 am
mm
Dir
 
Spd
km/h
Gust
km/h
Spd
kts
Gust
kts
31/11:30pm 15.8 14.8 5.8 51 4.8 CALM 0 2 0 1 1019.8 1019.7 0.0
31/11:00pm 18.0 15.6 5.1 42 6.2 WNW 7 9 4 5 1019.8 1019.7 0.0
31/10:30pm 19.9 16.8 3.7 34 7.7 NW 9 11 5 6 1019.7 1019.6 0.0
31/10:00pm 18.0 15.8 5.4 43 6.1 WNW 6 7 3 4 1019.8 1019.7 0.0
31/09:30pm 21.8 17.9 3.4 30 8.8 WNW 13 13 7 7 1019.8 1019.7 0.0
31/09:00pm 22.4 18.9 3.5 29 9.1 NW 11 13 6 7 1019.8 1019.7 0.0
31/08:30pm 21.5 18.8 3.9 31 8.5 NNW 7 9 4 5 1019.5 1019.4 0.0
31/08:00pm 22.5 19.5 4.0 30 9.0 N 9 9 5 5 1019.9 1019.8 0.0
31/07:30pm 23.4 20.1 4.6 29 9.3 NE 11 13 6 7 1019.7 1019.6 0.0
31/07:00pm 24.4 21.1 4.5 27 9.9 NE 11 13 6 7 1019.5 1019.4 0.0
31/06:30pm 27.3 23.1 3.7 22 11.8 NE 15 17 8 9 1019.5 1019.4 0.0
31/06:00pm 29.9 24.5 2.7 17 13.6 NE 20 28 11 15 1019.1 1019.0 0.0
31/05:30pm 29.8 25.2 3.6 19 13.3 NE 17 24 9 13 1018.9 1018.8 0.0
31/05:00pm 30.8 26.4 2.8 17 14.1 NE 15 24 8 13 1019.3 1019.2 0.0
31/04:30pm 30.7 26.2 2.2 16 14.2 NNE 15 26 8 14 1019.6 1019.5 0.0
31/04:00pm 30.2 25.7 2.2 16 13.9 NNE 15 22 8 12 1019.9 1019.8 0.0
31/03:30pm 31.2 26.5 3.3 17 14.2 NE 17 26 9 14 1020.3 1020.2 0.0
31/03:00pm 29.7 24.7 3.7 19 13.2 N 19 26 10 14 1020.6 1020.5 0.0
31/02:30pm 29.7 25.2 4.0 19 13.1 NNE 17 30 9 16 1021.0 1020.9 0.0
31/02:00pm 28.8 24.4 4.9 22 12.3 N 17 30 9 16 1021.7 1021.6 0.0
31/01:30pm 28.8 24.2 5.6 23 12.1 N 19 26 10 14 1022.2 1022.1 0.0
31/01:00pm 27.6 23.1 6.2 25 11.2 NNE 19 32 10 17 1022.7 1022.6 0.0
31/12:30pm 26.9 22.5 6.7 27 10.6 NNE 19 28 10 15 1023.4 1023.3 0.0
31/12:00pm 25.5 21.0 6.9 30 9.7 NNE 20 30 11 16 1023.7 1023.6 0.0
31/11:30am 24.4 20.3 8.5 36 8.5 NNE 20 28 11 15 1024.2 1024.1 0.0
31/11:00am 22.6 18.9 9.4 43 7.1 NNE 19 26 10 14 1024.7 1024.6 0.0
31/10:30am 21.3 18.0 9.5 47 6.3 NNE 17 24 9 13 1025.2 1025.1 0.0
31/10:00am 19.6 17.0 10.7 56 4.8 N 15 20 8 11 1025.4 1025.3 0.0
31/09:30am 17.7 16.7 12.3 70 3.0 N 9 13 5 7 1025.4 1025.3 0.0
31/09:00am 14.2 14.6 12.5 89 0.9 N 2 6 1 3 1025.7 1025.6 0.0
31/08:30am 12.1 12.5 11.3 95 0.4 CALM 0 0 0 0 1025.4 1025.3 0.0
31/08:00am 10.4 9.2 9.6 95 0.4 NW 6 7 3 4 1025.6 1025.5 0.0
31/07:30am 8.5 8.0 7.9 96 0.3 CALM 0 0 0 0 1025.3 1025.2 0.0
31/07:00am 9.0 8.6 8.2 95 0.4 CALM 0 0 0 0 1025.5 1025.4 0.0
31/06:30am 10.4 10.3 9.6 95 0.4 CALM 0 0 0 0 1025.2 1025.1 0.0
31/06:00am 9.8 9.5 8.8 93 0.5 CALM 0 0 0 0 1024.8 1024.7 0.0
31/05:30am 9.0 7.3 7.7 91 0.6 W 6 9 3 5 1024.8 1024.7 0.0
31/05:00am 10.4 10.3 9.4 93 0.5 CALM 0 0 0 0 1024.8 1024.7 0.0
31/04:30am 10.0 8.9 8.6 91 0.7 W 4 9 2 5 1024.9 1024.8 0.0
31/04:00am 11.3 10.0 9.3 87 1.0 W 6 9 3 5 1024.8 1024.7 0.0
31/03:30am 12.0 12.1 10.2 89 0.9 CALM 0 0 0 0 1024.8 1024.7 0.0
31/03:00am 11.8 10.6 10.4 91 0.7 SW 7 9 4 5 1025.0 1024.9 0.0
31/02:30am 11.2 11.1 9.6 90 0.8 CALM 0 0 0 0 1025.1 1025.0 0.0
31/02:00am 11.4 10.7 10.0 91 0.7 W 4 7 2 4 1025.6 1025.5 0.0
31/01:30am 11.8 10.6 9.6 86 1.1 WSW 6 9 3 5 1025.4 1025.3 0.0
31/01:00am 12.5 12.7 10.6 88 1.0 CALM 0 0 0 0 1025.2 1025.1 0.0
31/12:30am 14.3 13.1 11.7 84 1.4 W 9 13 5 7 1025.3 1025.2 0.0
31/12:00am 14.6 12.7 11.8 83 1.5 WSW 13 13 7 7 1025.5 1025.4 0.0
 
Date/Time
CDT
Tmp

°C
App
Tmp
°C
Dew
Point
°C
Rel
Hum
%
Delta-T

°C
Wind Press
QNH
hPa
Press
MSL
hPa
Rain
since
9 am
mm
Dir
 
Spd
km/h
Gust
km/h
Spd
kts
Gust
kts
30/11:30pm 15.0 13.2 12.0 82 1.6 WSW 13 15 7 8 1025.8 1025.7 0.0
30/11:00pm 15.3 13.5 12.2 82 1.7 SW 13 19 7 10 1025.9 1025.8 0.0
30/10:30pm 15.6 13.8 12.1 80 1.9 SW 13 15 7 8 1026.0 1025.9 0.0
30/10:00pm 16.2 14.0 12.2 77 2.2 SW 15 17 8 9 1025.9 1025.8 0.0
30/09:30pm 17.0 14.4 11.9 72 2.8 WSW 17 20 9 11 1025.9 1025.8 0.0
30/09:00pm 17.6 15.0 12.1 70 3.0 SW 17 20 9 11 1025.6 1025.5 0.0
30/08:30pm 18.1 15.5 11.9 67 3.4 SSW 17 22 9 12 1025.2 1025.1 0.0
30/08:00pm 18.9 15.7 11.4 61 4.1 SW 19 24 10 13 1024.8 1024.7 0.0
30/07:30pm 20.0 16.7 11.0 56 4.9 SSW 19 22 10 12 1024.5 1024.4 0.0
30/07:00pm 21.7 18.7 10.7 49 6.0 SSW 17 20 9 11 1024.1 1024.0 0.0
30/06:30pm 23.6 19.8 9.8 41 7.5 S 20 24 11 13 1023.9 1023.8 0.0
30/06:00pm 24.6 20.3 7.7 34 8.9 SSE 20 28 11 15 1023.6 1023.5 0.0
30/05:30pm 25.4 20.9 7.1 31 9.6 S 20 28 11 15 1023.5 1023.4 0.0
30/05:00pm 25.6 21.1 6.8 30 9.8 S 20 26 11 14 1023.3 1023.2 0.0
30/04:30pm 26.1 21.8 7.1 29 10.0 SSE 19 28 10 15 1023.2 1023.1 0.0
30/04:00pm 25.7 21.5 7.6 31 9.6 SE 19 28 10 15 1023.3 1023.2 0.0
30/03:30pm 25.6 22.7 8.2 33 9.3 S 13 20 7 11 1023.5 1023.4 0.0
30/03:00pm 25.3 22.6 8.8 35 8.9 SE 13 20 7 11 1023.6 1023.5 0.0
30/02:30pm 24.7 22.5 9.4 38 8.3 ESE 11 19 6 10 1024.0 1023.9 0.0
30/02:00pm 24.9 21.9 9.2 37 8.5 SSE 15 20 8 11 1024.4 1024.3 0.0
30/01:30pm 24.1 21.5 9.3 39 8.0 SW 13 20 7 11 1024.7 1024.6 0.0
30/01:00pm 23.6 22.3 10.1 42 7.4 NW 7 13 4 7 1025.0 1024.9 0.0
30/12:30pm 22.7 21.0 10.0 44 6.9 ESE 9 13 5 7 1025.4 1025.3 0.0
30/12:00pm 21.6 19.7 10.6 49 6.0 S 11 15 6 8 1025.7 1025.6 0.0
30/11:30am 21.3 20.3 11.1 52 5.6 SE 7 11 4 6 1025.9 1025.8 0.0
30/11:00am 20.5 19.1 10.8 53 5.3 ESE 9 13 5 7 1026.2 1026.1 0.0
30/10:30am 20.1 19.2 10.5 54 5.2 SE 6 11 3 6 1026.4 1026.3 0.0
30/10:00am 18.5 17.9 12.2 66 3.5 SE 7 11 4 6 1026.4 1026.3 0.0
30/09:30am 17.3 16.8 12.2 72 2.8 SSE 6 7 3 4 1026.2 1026.1 0.0
30/09:00am 14.9 15.6 12.1 83 1.5 CALM 0 0 0 0 1025.9 1025.8 0.0

Latest Capital City Observations: Canberra | Sydney | Melbourne | Brisbane | Adelaide | Perth | Hobart | Darwin

Other Formats:

Comma delimited format used in spreadsheet applications
http://www.bom.gov.au/fwo/IDS60901/IDS60901.95818.axf

JavaScript Object Notation format (JSON) in row-major order
http://www.bom.gov.au/fwo/IDS60901/IDS60901.95818.json